sensor_id;sensor_type;location;lat;lon;timestamp;P1;durP1;ratioP1;P2;durP2;ratioP2
79130;SDS011;72396;45.194;9.142;2023-08-31T00:01:31;3.00;;;1.13;;
79130;SDS011;72396;45.194;9.142;2023-08-31T00:03:58;3.05;;;1.10;;
79130;SDS011;72396;45.194;9.142;2023-08-31T00:06:24;2.45;;;1.20;;
79130;SDS011;72396;45.194;9.142;2023-08-31T00:08:50;3.42;;;1.50;;
79130;SDS011;72396;45.194;9.142;2023-08-31T00:11:15;3.15;;;1.20;;
79130;SDS011;72396;45.194;9.142;2023-08-31T00:13:41;2.95;;;1.30;;
79130;SDS011;72396;45.194;9.142;2023-08-31T00:16:06;3.30;;;1.10;;
79130;SDS011;72396;45.194;9.142;2023-08-31T00:18:34;2.75;;;1.13;;
79130;SDS011;72396;45.194;9.142;2023-08-31T00:21:01;2.97;;;1.10;;
79130;SDS011;72396;45.194;9.142;2023-08-31T00:23:26;2.28;;;1.10;;
79130;SDS011;72396;45.194;9.142;2023-08-31T00:25:52;2.97;;;1.10;;
79130;SDS011;72396;45.194;9.142;2023-08-31T00:28:18;2.13;;;1.10;;
79130;SDS011;72396;45.194;9.142;2023-08-31T00:30:44;4.15;;;1.25;;
79130;SDS011;72396;45.194;9.142;2023-08-31T00:33:12;2.42;;;1.30;;
79130;SDS011;72396;45.194;9.142;2023-08-31T00:35:38;2.83;;;1.20;;
79130;SDS011;72396;45.194;9.142;2023-08-31T00:38:07;2.78;;;1.35;;
79130;SDS011;72396;45.194;9.142;2023-08-31T00:40:33;2.22;;;1.10;;
79130;SDS011;72396;45.194;9.142;2023-08-31T00:43:03;3.85;;;1.42;;
79130;SDS011;72396;45.194;9.142;2023-08-31T00:45:28;2.97;;;1.50;;
79130;SDS011;72396;45.194;9.142;2023-08-31T00:47:54;2.67;;;1.13;;
79130;SDS011;72396;45.194;9.142;2023-08-31T00:50:19;2.42;;;1.10;;
79130;SDS011;72396;45.194;9.142;2023-08-31T00:52:45;3.55;;;1.27;;
79130;SDS011;72396;45.194;9.142;2023-08-31T00:55:10;2.45;;;1.15;;
79130;SDS011;72396;45.194;9.142;2023-08-31T00:57:36;3.38;;;1.30;;
79130;SDS011;72396;45.194;9.142;2023-08-31T01:00:01;2.67;;;1.30;;
79130;SDS011;72396;45.194;9.142;2023-08-31T01:05:11;2.60;;;1.20;;
79130;SDS011;72396;45.194;9.142;2023-08-31T01:10:42;2.50;;;1.20;;
79130;SDS011;72396;45.194;9.142;2023-08-31T01:13:16;3.85;;;1.20;;
79130;SDS011;72396;45.194;9.142;2023-08-31T01:15:48;3.58;;;1.40;;
79130;SDS011;72396;45.194;9.142;2023-08-31T01:18:18;3.40;;;1.30;;
79130;SDS011;72396;45.194;9.142;2023-08-31T01:23:53;3.13;;;1.30;;
79130;SDS011;72396;45.194;9.142;2023-08-31T01:26:21;3.05;;;1.30;;
79130;SDS011;72396;45.194;9.142;2023-08-31T01:28:47;2.80;;;1.35;;
79130;SDS011;72396;45.194;9.142;2023-08-31T01:31:13;2.75;;;1.25;;
79130;SDS011;72396;45.194;9.142;2023-08-31T01:33:40;3.08;;;1.48;;
79130;SDS011;72396;45.194;9.142;2023-08-31T01:36:07;3.60;;;1.40;;
79130;SDS011;72396;45.194;9.142;2023-08-31T01:38:37;2.85;;;1.30;;
79130;SDS011;72396;45.194;9.142;2023-08-31T01:41:06;3.65;;;1.40;;
79130;SDS011;72396;45.194;9.142;2023-08-31T01:43:35;2.53;;;1.23;;
79130;SDS011;72396;45.194;9.142;2023-08-31T01:46:01;3.50;;;1.30;;
79130;SDS011;72396;45.194;9.142;2023-08-31T01:48:27;2.83;;;1.30;;
79130;SDS011;72396;45.194;9.142;2023-08-31T01:50:53;3.17;;;1.30;;
79130;SDS011;72396;45.194;9.142;2023-08-31T01:53:18;2.85;;;1.30;;
79130;SDS011;72396;45.194;9.142;2023-08-31T01:55:43;2.50;;;1.33;;
79130;SDS011;72396;45.194;9.142;2023-08-31T01:58:09;3.15;;;1.40;;
79130;SDS011;72396;45.194;9.142;2023-08-31T02:00:34;3.88;;;1.50;;
79130;SDS011;72396;45.194;9.142;2023-08-31T02:03:00;3.03;;;1.30;;
79130;SDS011;72396;45.194;9.142;2023-08-31T02:05:26;4.50;;;1.55;;
79130;SDS011;72396;45.194;9.142;2023-08-31T02:07:52;2.60;;;1.30;;
79130;SDS011;72396;45.194;9.142;2023-08-31T02:10:18;3.88;;;1.30;;
79130;SDS011;72396;45.194;9.142;2023-08-31T02:12:43;2.40;;;1.10;;
79130;SDS011;72396;45.194;9.142;2023-08-31T02:15:08;3.47;;;1.45;;
79130;SDS011;72396;45.194;9.142;2023-08-31T02:17:34;3.03;;;1.35;;
79130;SDS011;72396;45.194;9.142;2023-08-31T02:20:00;3.35;;;1.38;;
79130;SDS011;72396;45.194;9.142;2023-08-31T02:22:27;3.25;;;1.40;;
79130;SDS011;72396;45.194;9.142;2023-08-31T02:24:55;2.92;;;1.45;;
79130;SDS011;72396;45.194;9.142;2023-08-31T02:27:20;4.45;;;1.80;;
79130;SDS011;72396;45.194;9.142;2023-08-31T02:29:46;3.08;;;1.50;;
79130;SDS011;72396;45.194;9.142;2023-08-31T02:32:11;3.47;;;1.20;;
79130;SDS011;72396;45.194;9.142;2023-08-31T02:34:37;3.67;;;1.45;;
79130;SDS011;72396;45.194;9.142;2023-08-31T02:37:02;4.57;;;1.83;;
79130;SDS011;72396;45.194;9.142;2023-08-31T02:39:27;4.10;;;1.70;;
79130;SDS011;72396;45.194;9.142;2023-08-31T02:41:53;3.15;;;1.23;;
79130;SDS011;72396;45.194;9.142;2023-08-31T02:44:18;3.20;;;1.73;;
79130;SDS011;72396;45.194;9.142;2023-08-31T02:46:44;4.07;;;1.45;;
79130;SDS011;72396;45.194;9.142;2023-08-31T02:49:09;4.07;;;1.60;;
79130;SDS011;72396;45.194;9.142;2023-08-31T02:51:34;2.83;;;1.30;;
79130;SDS011;72396;45.194;9.142;2023-08-31T02:53:59;2.95;;;1.50;;
79130;SDS011;72396;45.194;9.142;2023-08-31T02:56:25;3.30;;;1.35;;
79130;SDS011;72396;45.194;9.142;2023-08-31T02:58:50;2.50;;;1.23;;
79130;SDS011;72396;45.194;9.142;2023-08-31T03:01:16;3.28;;;1.20;;
79130;SDS011;72396;45.194;9.142;2023-08-31T03:03:41;3.05;;;1.33;;
79130;SDS011;72396;45.194;9.142;2023-08-31T03:06:08;2.90;;;1.30;;
79130;SDS011;72396;45.194;9.142;2023-08-31T03:08:35;3.00;;;1.48;;
79130;SDS011;72396;45.194;9.142;2023-08-31T03:11:02;3.00;;;1.52;;
79130;SDS011;72396;45.194;9.142;2023-08-31T03:13:28;3.85;;;1.40;;
79130;SDS011;72396;45.194;9.142;2023-08-31T03:15:53;3.08;;;1.50;;
79130;SDS011;72396;45.194;9.142;2023-08-31T03:18:18;4.55;;;1.42;;
79130;SDS011;72396;45.194;9.142;2023-08-31T03:20:44;4.25;;;1.50;;
79130;SDS011;72396;45.194;9.142;2023-08-31T03:23:09;4.95;;;1.60;;
79130;SDS011;72396;45.194;9.142;2023-08-31T03:25:36;2.83;;;1.42;;
79130;SDS011;72396;45.194;9.142;2023-08-31T03:28:02;3.88;;;1.58;;
79130;SDS011;72396;45.194;9.142;2023-08-31T03:30:27;2.90;;;1.40;;
79130;SDS011;72396;45.194;9.142;2023-08-31T03:32:53;4.95;;;1.88;;
79130;SDS011;72396;45.194;9.142;2023-08-31T03:35:19;3.92;;;1.50;;
79130;SDS011;72396;45.194;9.142;2023-08-31T03:37:46;3.10;;;1.40;;
79130;SDS011;72396;45.194;9.142;2023-08-31T03:40:12;4.05;;;1.60;;
79130;SDS011;72396;45.194;9.142;2023-08-31T03:42:38;2.72;;;1.33;;
79130;SDS011;72396;45.194;9.142;2023-08-31T03:45:03;2.45;;;1.40;;
79130;SDS011;72396;45.194;9.142;2023-08-31T03:47:29;3.13;;;1.42;;
79130;SDS011;72396;45.194;9.142;2023-08-31T03:49:55;3.30;;;1.60;;
79130;SDS011;72396;45.194;9.142;2023-08-31T03:52:20;3.42;;;1.60;;
79130;SDS011;72396;45.194;9.142;2023-08-31T03:54:46;3.70;;;1.55;;
79130;SDS011;72396;45.194;9.142;2023-08-31T03:57:11;3.85;;;2.08;;
79130;SDS011;72396;45.194;9.142;2023-08-31T03:59:36;3.92;;;1.70;;
79130;SDS011;72396;45.194;9.142;2023-08-31T04:02:02;4.40;;;1.63;;
79130;SDS011;72396;45.194;9.142;2023-08-31T04:04:27;6.78;;;2.30;;
79130;SDS011;72396;45.194;9.142;2023-08-31T04:06:52;5.00;;;2.03;;
79130;SDS011;72396;45.194;9.142;2023-08-31T04:09:18;3.40;;;1.80;;
79130;SDS011;72396;45.194;9.142;2023-08-31T04:11:44;3.25;;;1.42;;
79130;SDS011;72396;45.194;9.142;2023-08-31T04:14:09;6.20;;;1.70;;
79130;SDS011;72396;45.194;9.142;2023-08-31T04:16:34;3.30;;;1.90;;
79130;SDS011;72396;45.194;9.142;2023-08-31T04:19:00;4.65;;;2.55;;
79130;SDS011;72396;45.194;9.142;2023-08-31T04:21:25;4.38;;;1.92;;
79130;SDS011;72396;45.194;9.142;2023-08-31T04:23:50;3.85;;;1.90;;
79130;SDS011;72396;45.194;9.142;2023-08-31T04:26:16;4.32;;;1.88;;
79130;SDS011;72396;45.194;9.142;2023-08-31T04:28:42;3.33;;;1.67;;
79130;SDS011;72396;45.194;9.142;2023-08-31T04:31:08;3.80;;;1.75;;
79130;SDS011;72396;45.194;9.142;2023-08-31T04:33:34;3.67;;;2.00;;
79130;SDS011;72396;45.194;9.142;2023-08-31T04:36:03;4.25;;;1.80;;
79130;SDS011;72396;45.194;9.142;2023-08-31T04:38:30;4.97;;;1.65;;
79130;SDS011;72396;45.194;9.142;2023-08-31T04:40:57;3.47;;;1.60;;
79130;SDS011;72396;45.194;9.142;2023-08-31T04:43:24;4.45;;;1.90;;
79130;SDS011;72396;45.194;9.142;2023-08-31T04:45:50;4.63;;;1.73;;
79130;SDS011;72396;45.194;9.142;2023-08-31T04:48:16;5.00;;;2.70;;
79130;SDS011;72396;45.194;9.142;2023-08-31T04:50:42;5.32;;;2.90;;
79130;SDS011;72396;45.194;9.142;2023-08-31T04:53:07;5.47;;;2.83;;
79130;SDS011;72396;45.194;9.142;2023-08-31T04:55:33;5.10;;;2.63;;
79130;SDS011;72396;45.194;9.142;2023-08-31T04:57:58;5.53;;;2.63;;
79130;SDS011;72396;45.194;9.142;2023-08-31T05:00:23;7.47;;;3.03;;
79130;SDS011;72396;45.194;9.142;2023-08-31T05:02:49;6.03;;;2.65;;
79130;SDS011;72396;45.194;9.142;2023-08-31T05:05:14;5.00;;;2.75;;
79130;SDS011;72396;45.194;9.142;2023-08-31T05:07:39;6.85;;;2.75;;
79130;SDS011;72396;45.194;9.142;2023-08-31T05:10:05;5.35;;;3.00;;
79130;SDS011;72396;45.194;9.142;2023-08-31T05:12:31;6.43;;;3.13;;
79130;SDS011;72396;45.194;9.142;2023-08-31T05:14:57;4.70;;;2.85;;
79130;SDS011;72396;45.194;9.142;2023-08-31T05:17:22;8.50;;;3.30;;
79130;SDS011;72396;45.194;9.142;2023-08-31T05:19:47;8.07;;;3.08;;
79130;SDS011;72396;45.194;9.142;2023-08-31T05:22:13;5.38;;;2.55;;
79130;SDS011;72396;45.194;9.142;2023-08-31T05:24:38;7.97;;;3.10;;
79130;SDS011;72396;45.194;9.142;2023-08-31T05:27:04;5.22;;;2.78;;
79130;SDS011;72396;45.194;9.142;2023-08-31T05:29:29;7.32;;;3.22;;
79130;SDS011;72396;45.194;9.142;2023-08-31T05:31:55;8.70;;;3.40;;
79130;SDS011;72396;45.194;9.142;2023-08-31T05:34:21;5.07;;;2.78;;
79130;SDS011;72396;45.194;9.142;2023-08-31T05:36:48;7.00;;;2.88;;
79130;SDS011;72396;45.194;9.142;2023-08-31T05:39:13;4.82;;;2.58;;
79130;SDS011;72396;45.194;9.142;2023-08-31T05:41:40;4.22;;;2.65;;
79130;SDS011;72396;45.194;9.142;2023-08-31T05:44:06;5.47;;;2.60;;
79130;SDS011;72396;45.194;9.142;2023-08-31T05:46:31;5.30;;;2.70;;
79130;SDS011;72396;45.194;9.142;2023-08-31T05:48:57;6.32;;;2.58;;
79130;SDS011;72396;45.194;9.142;2023-08-31T05:51:23;7.05;;;3.55;;
79130;SDS011;72396;45.194;9.142;2023-08-31T05:53:49;4.50;;;2.70;;
79130;SDS011;72396;45.194;9.142;2023-08-31T05:56:14;5.38;;;2.67;;
79130;SDS011;72396;45.194;9.142;2023-08-31T05:58:39;4.88;;;2.70;;
79130;SDS011;72396;45.194;9.142;2023-08-31T06:01:05;6.65;;;2.80;;
79130;SDS011;72396;45.194;9.142;2023-08-31T06:03:30;5.93;;;2.95;;
79130;SDS011;72396;45.194;9.142;2023-08-31T06:05:57;7.85;;;2.88;;
79130;SDS011;72396;45.194;9.142;2023-08-31T06:08:23;8.43;;;3.05;;
79130;SDS011;72396;45.194;9.142;2023-08-31T06:10:49;8.18;;;3.50;;
79130;SDS011;72396;45.194;9.142;2023-08-31T06:13:14;6.60;;;3.25;;
79130;SDS011;72396;45.194;9.142;2023-08-31T06:15:39;8.88;;;4.22;;
79130;SDS011;72396;45.194;9.142;2023-08-31T06:18:05;7.30;;;3.80;;
79130;SDS011;72396;45.194;9.142;2023-08-31T06:20:31;5.18;;;3.63;;
79130;SDS011;72396;45.194;9.142;2023-08-31T06:22:56;7.43;;;4.70;;
79130;SDS011;72396;45.194;9.142;2023-08-31T06:25:22;6.78;;;4.50;;
79130;SDS011;72396;45.194;9.142;2023-08-31T06:27:47;8.52;;;4.60;;
79130;SDS011;72396;45.194;9.142;2023-08-31T06:30:13;8.75;;;5.97;;
79130;SDS011;72396;45.194;9.142;2023-08-31T06:32:44;9.45;;;6.90;;
79130;SDS011;72396;45.194;9.142;2023-08-31T06:35:11;10.70;;;6.68;;
79130;SDS011;72396;45.194;9.142;2023-08-31T06:37:37;9.75;;;7.00;;
79130;SDS011;72396;45.194;9.142;2023-08-31T06:40:04;8.10;;;6.55;;
79130;SDS011;72396;45.194;9.142;2023-08-31T06:42:30;9.50;;;6.85;;
79130;SDS011;72396;45.194;9.142;2023-08-31T06:44:55;21.35;;;9.20;;
79130;SDS011;72396;45.194;9.142;2023-08-31T06:47:22;10.82;;;8.20;;
79130;SDS011;72396;45.194;9.142;2023-08-31T06:49:47;18.67;;;8.20;;
79130;SDS011;72396;45.194;9.142;2023-08-31T06:52:13;10.57;;;7.10;;
79130;SDS011;72396;45.194;9.142;2023-08-31T06:54:38;10.55;;;7.78;;
79130;SDS011;72396;45.194;9.142;2023-08-31T06:57:03;9.85;;;7.43;;
79130;SDS011;72396;45.194;9.142;2023-08-31T06:59:29;10.07;;;7.90;;
79130;SDS011;72396;45.194;9.142;2023-08-31T07:01:54;9.63;;;7.35;;
79130;SDS011;72396;45.194;9.142;2023-08-31T07:04:19;9.18;;;7.70;;
79130;SDS011;72396;45.194;9.142;2023-08-31T07:06:45;10.57;;;7.22;;
79130;SDS011;72396;45.194;9.142;2023-08-31T07:09:10;7.70;;;5.78;;
79130;SDS011;72396;45.194;9.142;2023-08-31T07:11:36;9.75;;;5.40;;
79130;SDS011;72396;45.194;9.142;2023-08-31T07:14:01;10.30;;;5.95;;
79130;SDS011;72396;45.194;9.142;2023-08-31T07:16:26;8.65;;;5.68;;
79130;SDS011;72396;45.194;9.142;2023-08-31T07:18:52;9.82;;;7.07;;
79130;SDS011;72396;45.194;9.142;2023-08-31T07:21:17;8.43;;;4.68;;
79130;SDS011;72396;45.194;9.142;2023-08-31T07:23:43;8.55;;;4.10;;
79130;SDS011;72396;45.194;9.142;2023-08-31T07:26:08;9.45;;;6.55;;
79130;SDS011;72396;45.194;9.142;2023-08-31T07:28:34;8.80;;;6.70;;
79130;SDS011;72396;45.194;9.142;2023-08-31T07:31:00;9.15;;;6.32;;
79130;SDS011;72396;45.194;9.142;2023-08-31T07:33:29;9.40;;;5.65;;
79130;SDS011;72396;45.194;9.142;2023-08-31T07:35:59;9.88;;;6.00;;
79130;SDS011;72396;45.194;9.142;2023-08-31T07:38:25;8.43;;;5.20;;
79130;SDS011;72396;45.194;9.142;2023-08-31T07:40:52;7.60;;;5.05;;
79130;SDS011;72396;45.194;9.142;2023-08-31T07:43:18;7.40;;;4.13;;
79130;SDS011;72396;45.194;9.142;2023-08-31T07:45:43;7.10;;;4.10;;
79130;SDS011;72396;45.194;9.142;2023-08-31T07:48:08;6.82;;;4.18;;
79130;SDS011;72396;45.194;9.142;2023-08-31T07:50:34;6.03;;;2.97;;
79130;SDS011;72396;45.194;9.142;2023-08-31T07:53:02;9.85;;;3.38;;
79130;SDS011;72396;45.194;9.142;2023-08-31T07:55:28;9.50;;;3.80;;
79130;SDS011;72396;45.194;9.142;2023-08-31T07:57:54;6.35;;;3.78;;
79130;SDS011;72396;45.194;9.142;2023-08-31T08:00:19;4.35;;;2.47;;
79130;SDS011;72396;45.194;9.142;2023-08-31T08:02:45;6.45;;;2.28;;
79130;SDS011;72396;45.194;9.142;2023-08-31T08:05:11;5.72;;;1.98;;
79130;SDS011;72396;45.194;9.142;2023-08-31T08:07:36;4.90;;;2.40;;
79130;SDS011;72396;45.194;9.142;2023-08-31T08:10:01;3.58;;;1.75;;
79130;SDS011;72396;45.194;9.142;2023-08-31T08:12:27;4.22;;;2.03;;
79130;SDS011;72396;45.194;9.142;2023-08-31T08:15:01;4.20;;;2.17;;
79130;SDS011;72396;45.194;9.142;2023-08-31T08:17:27;6.07;;;1.98;;
79130;SDS011;72396;45.194;9.142;2023-08-31T08:19:52;3.60;;;1.88;;
79130;SDS011;72396;45.194;9.142;2023-08-31T08:22:17;5.47;;;2.03;;
79130;SDS011;72396;45.194;9.142;2023-08-31T08:24:43;3.33;;;1.80;;
79130;SDS011;72396;45.194;9.142;2023-08-31T08:27:08;3.35;;;1.77;;
79130;SDS011;72396;45.194;9.142;2023-08-31T08:29:33;6.57;;;2.10;;
79130;SDS011;72396;45.194;9.142;2023-08-31T08:31:59;3.92;;;1.80;;
79130;SDS011;72396;45.194;9.142;2023-08-31T08:34:25;5.28;;;1.83;;
79130;SDS011;72396;45.194;9.142;2023-08-31T08:36:51;3.60;;;2.05;;
79130;SDS011;72396;45.194;9.142;2023-08-31T08:39:17;4.72;;;1.88;;
79130;SDS011;72396;45.194;9.142;2023-08-31T08:41:42;4.88;;;2.13;;
79130;SDS011;72396;45.194;9.142;2023-08-31T08:44:09;4.82;;;2.15;;
79130;SDS011;72396;45.194;9.142;2023-08-31T08:46:35;5.28;;;1.95;;
79130;SDS011;72396;45.194;9.142;2023-08-31T08:49:02;5.25;;;1.83;;
79130;SDS011;72396;45.194;9.142;2023-08-31T08:51:30;5.93;;;1.83;;
79130;SDS011;72396;45.194;9.142;2023-08-31T08:53:56;3.58;;;1.80;;
79130;SDS011;72396;45.194;9.142;2023-08-31T08:56:24;5.90;;;1.90;;
79130;SDS011;72396;45.194;9.142;2023-08-31T08:58:49;4.75;;;2.03;;
79130;SDS011;72396;45.194;9.142;2023-08-31T09:01:15;5.65;;;2.25;;
79130;SDS011;72396;45.194;9.142;2023-08-31T09:03:42;5.07;;;2.13;;
79130;SDS011;72396;45.194;9.142;2023-08-31T09:06:08;4.80;;;2.10;;
79130;SDS011;72396;45.194;9.142;2023-08-31T09:08:35;4.65;;;1.90;;
79130;SDS011;72396;45.194;9.142;2023-08-31T09:11:02;4.80;;;1.85;;
79130;SDS011;72396;45.194;9.142;2023-08-31T09:13:28;7.05;;;2.00;;
79130;SDS011;72396;45.194;9.142;2023-08-31T09:15:54;3.92;;;1.92;;
79130;SDS011;72396;45.194;9.142;2023-08-31T09:18:24;4.55;;;1.73;;
79130;SDS011;72396;45.194;9.142;2023-08-31T09:20:54;5.32;;;2.20;;
79130;SDS011;72396;45.194;9.142;2023-08-31T09:23:21;4.22;;;2.05;;
79130;SDS011;72396;45.194;9.142;2023-08-31T09:25:51;6.40;;;1.88;;
79130;SDS011;72396;45.194;9.142;2023-08-31T09:28:21;6.47;;;2.00;;
79130;SDS011;72396;45.194;9.142;2023-08-31T09:30:48;4.88;;;1.98;;
79130;SDS011;72396;45.194;9.142;2023-08-31T09:33:18;6.15;;;2.13;;
79130;SDS011;72396;45.194;9.142;2023-08-31T09:35:51;4.32;;;1.92;;
79130;SDS011;72396;45.194;9.142;2023-08-31T09:38:19;6.22;;;2.00;;
79130;SDS011;72396;45.194;9.142;2023-08-31T09:40:44;4.38;;;1.75;;
79130;SDS011;72396;45.194;9.142;2023-08-31T09:43:11;4.00;;;1.70;;
79130;SDS011;72396;45.194;9.142;2023-08-31T09:45:37;6.60;;;2.00;;
79130;SDS011;72396;45.194;9.142;2023-08-31T09:48:03;5.65;;;2.00;;
79130;SDS011;72396;45.194;9.142;2023-08-31T09:50:30;4.10;;;1.92;;
79130;SDS011;72396;45.194;9.142;2023-08-31T09:53:00;4.97;;;2.13;;
79130;SDS011;72396;45.194;9.142;2023-08-31T09:55:30;6.10;;;2.40;;
79130;SDS011;72396;45.194;9.142;2023-08-31T09:57:57;4.30;;;2.20;;
79130;SDS011;72396;45.194;9.142;2023-08-31T10:00:27;4.60;;;1.98;;
79130;SDS011;72396;45.194;9.142;2023-08-31T10:02:55;7.00;;;2.00;;
79130;SDS011;72396;45.194;9.142;2023-08-31T10:05:23;7.07;;;2.08;;
79130;SDS011;72396;45.194;9.142;2023-08-31T10:07:50;9.90;;;2.38;;
79130;SDS011;72396;45.194;9.142;2023-08-31T10:10:15;5.07;;;2.05;;
79130;SDS011;72396;45.194;9.142;2023-08-31T10:12:41;6.43;;;2.25;;
79130;SDS011;72396;45.194;9.142;2023-08-31T10:15:10;7.82;;;2.20;;
79130;SDS011;72396;45.194;9.142;2023-08-31T10:17:37;8.15;;;2.33;;
79130;SDS011;72396;45.194;9.142;2023-08-31T10:20:04;6.22;;;2.40;;
79130;SDS011;72396;45.194;9.142;2023-08-31T10:22:31;6.30;;;2.35;;
79130;SDS011;72396;45.194;9.142;2023-08-31T10:27:24;6.43;;;2.00;;
79130;SDS011;72396;45.194;9.142;2023-08-31T10:29:49;6.85;;;2.50;;
79130;SDS011;72396;45.194;9.142;2023-08-31T10:32:18;4.18;;;1.80;;
79130;SDS011;72396;45.194;9.142;2023-08-31T10:34:43;6.57;;;2.15;;
79130;SDS011;72396;45.194;9.142;2023-08-31T10:37:21;4.70;;;2.00;;
79130;SDS011;72396;45.194;9.142;2023-08-31T10:39:48;5.78;;;1.98;;
79130;SDS011;72396;45.194;9.142;2023-08-31T10:42:13;3.72;;;1.92;;
79130;SDS011;72396;45.194;9.142;2023-08-31T10:44:41;6.40;;;2.10;;
79130;SDS011;72396;45.194;9.142;2023-08-31T10:47:07;4.78;;;2.10;;
79130;SDS011;72396;45.194;9.142;2023-08-31T10:49:33;3.70;;;1.75;;
79130;SDS011;72396;45.194;9.142;2023-08-31T10:52:18;5.20;;;2.13;;
79130;SDS011;72396;45.194;9.142;2023-08-31T10:54:45;5.70;;;2.30;;
79130;SDS011;72396;45.194;9.142;2023-08-31T10:57:11;17.15;;;2.83;;
79130;SDS011;72396;45.194;9.142;2023-08-31T11:02:33;8.55;;;2.50;;
79130;SDS011;72396;45.194;9.142;2023-08-31T11:05:09;6.10;;;2.28;;
79130;SDS011;72396;45.194;9.142;2023-08-31T11:07:42;6.50;;;2.70;;
79130;SDS011;72396;45.194;9.142;2023-08-31T11:10:19;8.00;;;2.30;;
79130;SDS011;72396;45.194;9.142;2023-08-31T11:12:49;10.15;;;3.00;;
79130;SDS011;72396;45.194;9.142;2023-08-31T11:15:20;7.50;;;2.40;;
79130;SDS011;72396;45.194;9.142;2023-08-31T11:17:46;9.00;;;2.90;;
79130;SDS011;72396;45.194;9.142;2023-08-31T11:20:15;5.80;;;2.30;;
79130;SDS011;72396;45.194;9.142;2023-08-31T11:22:41;6.57;;;2.40;;
79130;SDS011;72396;45.194;9.142;2023-08-31T11:25:09;6.75;;;2.55;;
79130;SDS011;72396;45.194;9.142;2023-08-31T11:27:36;29.13;;;18.42;;
79130;SDS011;72396;45.194;9.142;2023-08-31T11:30:02;21.58;;;13.77;;
79130;SDS011;72396;45.194;9.142;2023-08-31T11:32:29;18.25;;;13.75;;
79130;SDS011;72396;45.194;9.142;2023-08-31T11:34:54;17.70;;;11.85;;
79130;SDS011;72396;45.194;9.142;2023-08-31T11:37:19;17.45;;;12.63;;
79130;SDS011;72396;45.194;9.142;2023-08-31T11:39:49;15.10;;;11.23;;
79130;SDS011;72396;45.194;9.142;2023-08-31T11:42:19;12.85;;;10.43;;
79130;SDS011;72396;45.194;9.142;2023-08-31T11:44:50;12.48;;;7.82;;
79130;SDS011;72396;45.194;9.142;2023-08-31T11:47:17;11.73;;;7.88;;
79130;SDS011;72396;45.194;9.142;2023-08-31T11:49:45;11.40;;;8.02;;
79130;SDS011;72396;45.194;9.142;2023-08-31T11:52:11;9.93;;;5.50;;
79130;SDS011;72396;45.194;9.142;2023-08-31T11:54:38;8.23;;;5.03;;
79130;SDS011;72396;45.194;9.142;2023-08-31T11:57:06;10.40;;;5.53;;
79130;SDS011;72396;45.194;9.142;2023-08-31T11:59:33;10.05;;;4.90;;
79130;SDS011;72396;45.194;9.142;2023-08-31T12:02:00;7.65;;;3.38;;
79130;SDS011;72396;45.194;9.142;2023-08-31T12:04:25;7.38;;;4.47;;
79130;SDS011;72396;45.194;9.142;2023-08-31T12:06:51;6.28;;;3.30;;
79130;SDS011;72396;45.194;9.142;2023-08-31T12:09:18;7.32;;;3.50;;
79130;SDS011;72396;45.194;9.142;2023-08-31T12:11:51;5.30;;;3.38;;
79130;SDS011;72396;45.194;9.142;2023-08-31T12:14:20;7.25;;;2.92;;
79130;SDS011;72396;45.194;9.142;2023-08-31T12:16:47;6.13;;;3.25;;
79130;SDS011;72396;45.194;9.142;2023-08-31T12:19:13;6.15;;;3.00;;
79130;SDS011;72396;45.194;9.142;2023-08-31T12:21:39;4.95;;;2.63;;
79130;SDS011;72396;45.194;9.142;2023-08-31T12:24:05;5.57;;;2.83;;
79130;SDS011;72396;45.194;9.142;2023-08-31T12:26:31;4.40;;;2.70;;
79130;SDS011;72396;45.194;9.142;2023-08-31T12:28:57;5.40;;;2.50;;
79130;SDS011;72396;45.194;9.142;2023-08-31T12:31:22;5.45;;;2.65;;
79130;SDS011;72396;45.194;9.142;2023-08-31T12:33:48;6.50;;;2.42;;
79130;SDS011;72396;45.194;9.142;2023-08-31T12:36:14;9.90;;;2.47;;
79130;SDS011;72396;45.194;9.142;2023-08-31T12:38:39;13.15;;;2.83;;
79130;SDS011;72396;45.194;9.142;2023-08-31T12:41:05;4.38;;;2.28;;
79130;SDS011;72396;45.194;9.142;2023-08-31T12:43:31;6.47;;;1.83;;
79130;SDS011;72396;45.194;9.142;2023-08-31T12:45:56;5.43;;;2.15;;
79130;SDS011;72396;45.194;9.142;2023-08-31T12:48:22;4.50;;;1.95;;
79130;SDS011;72396;45.194;9.142;2023-08-31T12:50:47;6.07;;;2.25;;
79130;SDS011;72396;45.194;9.142;2023-08-31T12:53:13;5.35;;;2.13;;
79130;SDS011;72396;45.194;9.142;2023-08-31T12:55:39;4.53;;;2.25;;
79130;SDS011;72396;45.194;9.142;2023-08-31T12:58:05;7.82;;;2.53;;
79130;SDS011;72396;45.194;9.142;2023-08-31T13:00:30;4.18;;;2.13;;
79130;SDS011;72396;45.194;9.142;2023-08-31T13:02:55;4.80;;;2.38;;
79130;SDS011;72396;45.194;9.142;2023-08-31T13:05:21;4.90;;;2.10;;
79130;SDS011;72396;45.194;9.142;2023-08-31T13:07:46;3.90;;;2.00;;
79130;SDS011;72396;45.194;9.142;2023-08-31T13:10:12;5.57;;;2.20;;
79130;SDS011;72396;45.194;9.142;2023-08-31T13:12:37;9.02;;;2.45;;
79130;SDS011;72396;45.194;9.142;2023-08-31T13:15:02;5.03;;;2.30;;
79130;SDS011;72396;45.194;9.142;2023-08-31T13:17:28;5.68;;;2.00;;
79130;SDS011;72396;45.194;9.142;2023-08-31T13:19:54;6.53;;;2.25;;
79130;SDS011;72396;45.194;9.142;2023-08-31T13:22:20;6.10;;;2.40;;
79130;SDS011;72396;45.194;9.142;2023-08-31T13:24:49;6.97;;;2.20;;
79130;SDS011;72396;45.194;9.142;2023-08-31T13:27:15;9.48;;;2.63;;
79130;SDS011;72396;45.194;9.142;2023-08-31T13:29:41;5.40;;;2.70;;
79130;SDS011;72396;45.194;9.142;2023-08-31T13:32:07;5.28;;;2.47;;
79130;SDS011;72396;45.194;9.142;2023-08-31T13:34:32;7.65;;;2.47;;
79130;SDS011;72396;45.194;9.142;2023-08-31T13:36:58;5.78;;;2.20;;
79130;SDS011;72396;45.194;9.142;2023-08-31T13:39:25;5.35;;;2.08;;
79130;SDS011;72396;45.194;9.142;2023-08-31T13:41:51;5.18;;;2.10;;
79130;SDS011;72396;45.194;9.142;2023-08-31T13:44:17;4.22;;;2.10;;
79130;SDS011;72396;45.194;9.142;2023-08-31T13:46:42;3.17;;;1.95;;
79130;SDS011;72396;45.194;9.142;2023-08-31T13:49:08;5.43;;;2.25;;
79130;SDS011;72396;45.194;9.142;2023-08-31T13:51:33;4.65;;;2.35;;
79130;SDS011;72396;45.194;9.142;2023-08-31T13:53:59;5.93;;;2.50;;
79130;SDS011;72396;45.194;9.142;2023-08-31T13:56:24;7.22;;;2.40;;
79130;SDS011;72396;45.194;9.142;2023-08-31T13:58:49;5.20;;;2.22;;
79130;SDS011;72396;45.194;9.142;2023-08-31T14:01:14;7.35;;;2.60;;
79130;SDS011;72396;45.194;9.142;2023-08-31T14:03:40;4.05;;;1.90;;
79130;SDS011;72396;45.194;9.142;2023-08-31T14:06:06;5.18;;;2.30;;
79130;SDS011;72396;45.194;9.142;2023-08-31T14:08:31;5.38;;;2.50;;
79130;SDS011;72396;45.194;9.142;2023-08-31T14:10:56;6.40;;;2.30;;
79130;SDS011;72396;45.194;9.142;2023-08-31T14:13:22;4.65;;;2.15;;
79130;SDS011;72396;45.194;9.142;2023-08-31T14:15:47;6.05;;;2.50;;
79130;SDS011;72396;45.194;9.142;2023-08-31T14:18:13;4.55;;;2.13;;
79130;SDS011;72396;45.194;9.142;2023-08-31T14:20:39;8.27;;;2.63;;
79130;SDS011;72396;45.194;9.142;2023-08-31T14:23:05;5.57;;;2.40;;
79130;SDS011;72396;45.194;9.142;2023-08-31T14:25:36;4.82;;;2.53;;
79130;SDS011;72396;45.194;9.142;2023-08-31T14:28:05;5.18;;;2.80;;
79130;SDS011;72396;45.194;9.142;2023-08-31T14:30:30;6.40;;;2.60;;
79130;SDS011;72396;45.194;9.142;2023-08-31T14:32:56;6.57;;;2.38;;
79130;SDS011;72396;45.194;9.142;2023-08-31T14:35:21;5.10;;;2.45;;
79130;SDS011;72396;45.194;9.142;2023-08-31T14:37:46;5.57;;;2.35;;
79130;SDS011;72396;45.194;9.142;2023-08-31T14:40:12;6.65;;;2.67;;
79130;SDS011;72396;45.194;9.142;2023-08-31T14:42:38;5.88;;;2.40;;
79130;SDS011;72396;45.194;9.142;2023-08-31T14:45:05;6.75;;;2.55;;
79130;SDS011;72396;45.194;9.142;2023-08-31T14:47:31;4.13;;;2.40;;
79130;SDS011;72396;45.194;9.142;2023-08-31T14:49:56;4.53;;;2.10;;
79130;SDS011;72396;45.194;9.142;2023-08-31T14:52:21;4.57;;;2.22;;
79130;SDS011;72396;45.194;9.142;2023-08-31T14:54:47;7.15;;;2.33;;